sensor_id;sensor_type;location;lat;lon;timestamp;temperature;humidity
22006;DHT22;11167;46.988;15.470;2022-07-03T00:01:10;24.00;61.80
22006;DHT22;11167;46.988;15.470;2022-07-03T00:03:12;23.90;62.00
22006;DHT22;11167;46.988;15.470;2022-07-03T00:05:13;23.90;61.80
22006;DHT22;11167;46.988;15.470;2022-07-03T00:07:15;23.90;61.90
22006;DHT22;11167;46.988;15.470;2022-07-03T00:09:17;23.80;61.80
22006;DHT22;11167;46.988;15.470;2022-07-03T00:11:20;23.80;61.80
22006;DHT22;11167;46.988;15.470;2022-07-03T00:13:21;23.80;61.80
22006;DHT22;11167;46.988;15.470;2022-07-03T00:15:22;23.70;61.80
22006;DHT22;11167;46.988;15.470;2022-07-03T00:17:24;23.70;61.80
22006;DHT22;11167;46.988;15.470;2022-07-03T00:19:25;23.70;61.90
22006;DHT22;11167;46.988;15.470;2022-07-03T00:21:35;23.60;61.80
22006;DHT22;11167;46.988;15.470;2022-07-03T00:23:46;23.60;61.80
22006;DHT22;11167;46.988;15.470;2022-07-03T00:25:49;23.60;61.90
22006;DHT22;11167;46.988;15.470;2022-07-03T00:27:50;23.50;61.80
22006;DHT22;11167;46.988;15.470;2022-07-03T00:29:55;23.50;61.80
22006;DHT22;11167;46.988;15.470;2022-07-03T00:31:57;23.40;61.80
22006;DHT22;11167;46.988;15.470;2022-07-03T00:34:00;23.40;61.80
22006;DHT22;11167;46.988;15.470;2022-07-03T00:36:02;23.40;61.80
22006;DHT22;11167;46.988;15.470;2022-07-03T00:38:03;23.40;61.80
22006;DHT22;11167;46.988;15.470;2022-07-03T00:40:05;23.30;61.80
22006;DHT22;11167;46.988;15.470;2022-07-03T00:42:07;23.30;61.80
22006;DHT22;11167;46.988;15.470;2022-07-03T00:44:09;23.30;61.80
22006;DHT22;11167;46.988;15.470;2022-07-03T00:46:10;23.20;61.90
22006;DHT22;11167;46.988;15.470;2022-07-03T00:48:13;23.20;61.90
22006;DHT22;11167;46.988;15.470;2022-07-03T00:50:15;23.20;61.90
22006;DHT22;11167;46.988;15.470;2022-07-03T00:52:18;23.10;61.80
22006;DHT22;11167;46.988;15.470;2022-07-03T00:54:20;23.10;61.90
22006;DHT22;11167;46.988;15.470;2022-07-03T00:56:27;23.10;61.90
22006;DHT22;11167;46.988;15.470;2022-07-03T00:58:30;23.00;61.90
22006;DHT22;11167;46.988;15.470;2022-07-03T01:00:34;23.00;62.00
22006;DHT22;11167;46.988;15.470;2022-07-03T01:02:53;23.00;62.00
22006;DHT22;11167;46.988;15.470;2022-07-03T01:07:25;22.90;62.00
22006;DHT22;11167;46.988;15.470;2022-07-03T01:09:23;22.90;62.00
22006;DHT22;11167;46.988;15.470;2022-07-03T01:18:44;22.70;61.90
22006;DHT22;11167;46.988;15.470;2022-07-03T01:20:47;22.60;61.90
22006;DHT22;11167;46.988;15.470;2022-07-03T01:22:52;22.50;61.90
22006;DHT22;11167;46.988;15.470;2022-07-03T01:27:21;22.60;62.10
22006;DHT22;11167;46.988;15.470;2022-07-03T01:29:25;22.50;61.90
22006;DHT22;11167;46.988;15.470;2022-07-03T01:31:25;22.50;62.00
22006;DHT22;11167;46.988;15.470;2022-07-03T01:33:32;22.50;62.00
22006;DHT22;11167;46.988;15.470;2022-07-03T01:35:36;22.40;62.10
22006;DHT22;11167;46.988;15.470;2022-07-03T01:37:40;22.40;62.10
22006;DHT22;11167;46.988;15.470;2022-07-03T01:39:44;22.40;62.10
22006;DHT22;11167;46.988;15.470;2022-07-03T01:41:48;22.30;62.00
22006;DHT22;11167;46.988;15.470;2022-07-03T01:43:55;22.30;62.00
22006;DHT22;11167;46.988;15.470;2022-07-03T01:45:57;22.30;62.10
22006;DHT22;11167;46.988;15.470;2022-07-03T01:48:02;22.30;62.10
22006;DHT22;11167;46.988;15.470;2022-07-03T01:50:07;22.30;62.10
22006;DHT22;11167;46.988;15.470;2022-07-03T01:52:14;22.20;62.00
22006;DHT22;11167;46.988;15.470;2022-07-03T01:54:16;22.20;62.20
22006;DHT22;11167;46.988;15.470;2022-07-03T01:56:19;22.20;62.10
22006;DHT22;11167;46.988;15.470;2022-07-03T01:58:21;22.20;62.10
22006;DHT22;11167;46.988;15.470;2022-07-03T02:00:22;22.10;62.00
22006;DHT22;11167;46.988;15.470;2022-07-03T02:02:31;22.10;62.00
22006;DHT22;11167;46.988;15.470;2022-07-03T02:04:48;22.00;62.00
22006;DHT22;11167;46.988;15.470;2022-07-03T02:06:41;22.00;62.10
22006;DHT22;11167;46.988;15.470;2022-07-03T02:08:44;22.00;62.00
22006;DHT22;11167;46.988;15.470;2022-07-03T02:10:59;22.00;62.10
22006;DHT22;11167;46.988;15.470;2022-07-03T02:13:00;21.90;62.10
22006;DHT22;11167;46.988;15.470;2022-07-03T02:15:06;21.90;62.20
22006;DHT22;11167;46.988;15.470;2022-07-03T02:17:19;21.90;62.20
22006;DHT22;11167;46.988;15.470;2022-07-03T02:19:30;21.80;63.00
22006;DHT22;11167;46.988;15.470;2022-07-03T02:21:28;21.80;62.20
22006;DHT22;11167;46.988;15.470;2022-07-03T02:23:32;21.80;62.20
22006;DHT22;11167;46.988;15.470;2022-07-03T02:25:36;21.80;62.20
22006;DHT22;11167;46.988;15.470;2022-07-03T02:27:44;21.70;62.20
22006;DHT22;11167;46.988;15.470;2022-07-03T02:30:01;21.70;62.20
22006;DHT22;11167;46.988;15.470;2022-07-03T02:32:04;21.70;62.20
22006;DHT22;11167;46.988;15.470;2022-07-03T02:34:07;21.70;62.30
22006;DHT22;11167;46.988;15.470;2022-07-03T02:36:10;21.60;62.20
22006;DHT22;11167;46.988;15.470;2022-07-03T02:38:19;21.60;62.10
22006;DHT22;11167;46.988;15.470;2022-07-03T02:40:24;21.60;62.20
22006;DHT22;11167;46.988;15.470;2022-07-03T02:44:59;21.60;62.30
22006;DHT22;11167;46.988;15.470;2022-07-03T02:54:15;21.50;62.30
22006;DHT22;11167;46.988;15.470;2022-07-03T02:56:19;21.40;62.30
22006;DHT22;11167;46.988;15.470;2022-07-03T03:00:35;21.40;62.30
22006;DHT22;11167;46.988;15.470;2022-07-03T03:02:57;21.30;62.30
22006;DHT22;11167;46.988;15.470;2022-07-03T03:05:09;21.30;62.30
22006;DHT22;11167;46.988;15.470;2022-07-03T03:07:15;21.30;62.30
22006;DHT22;11167;46.988;15.470;2022-07-03T03:09:32;21.30;62.40
22006;DHT22;11167;46.988;15.470;2022-07-03T03:11:42;21.20;62.30
22006;DHT22;11167;46.988;15.470;2022-07-03T03:13:46;21.20;62.30
22006;DHT22;11167;46.988;15.470;2022-07-03T03:15:58;21.20;62.30
22006;DHT22;11167;46.988;15.470;2022-07-03T03:18:09;21.10;62.30
22006;DHT22;11167;46.988;15.470;2022-07-03T03:20:01;21.10;62.30
22006;DHT22;11167;46.988;15.470;2022-07-03T03:24:35;21.10;62.30
22006;DHT22;11167;46.988;15.470;2022-07-03T03:26:38;21.00;62.30
22006;DHT22;11167;46.988;15.470;2022-07-03T03:28:40;21.00;62.30
22006;DHT22;11167;46.988;15.470;2022-07-03T03:30:41;21.00;62.30
22006;DHT22;11167;46.988;15.470;2022-07-03T03:32:42;21.00;62.30
22006;DHT22;11167;46.988;15.470;2022-07-03T03:34:45;21.00;62.40
22006;DHT22;11167;46.988;15.470;2022-07-03T03:36:47;21.00;62.40
22006;DHT22;11167;46.988;15.470;2022-07-03T03:38:48;20.90;62.30
22006;DHT22;11167;46.988;15.470;2022-07-03T03:40:51;20.90;62.50
22006;DHT22;11167;46.988;15.470;2022-07-03T03:42:52;20.90;62.30
22006;DHT22;11167;46.988;15.470;2022-07-03T03:44:53;20.90;62.40
22006;DHT22;11167;46.988;15.470;2022-07-03T03:46:55;20.90;62.30
22006;DHT22;11167;46.988;15.470;2022-07-03T03:48:57;20.80;62.30
22006;DHT22;11167;46.988;15.470;2022-07-03T03:50:59;20.80;62.30
22006;DHT22;11167;46.988;15.470;2022-07-03T03:53:01;20.80;62.40
22006;DHT22;11167;46.988;15.470;2022-07-03T03:55:02;20.80;62.40
22006;DHT22;11167;46.988;15.470;2022-07-03T03:57:22;20.80;62.50
22006;DHT22;11167;46.988;15.470;2022-07-03T03:59:21;20.80;62.50
22006;DHT22;11167;46.988;15.470;2022-07-03T04:01:22;20.70;62.40
22006;DHT22;11167;46.988;15.470;2022-07-03T04:03:24;20.70;62.50
22006;DHT22;11167;46.988;15.470;2022-07-03T04:05:26;20.70;62.50
22006;DHT22;11167;46.988;15.470;2022-07-03T04:07:27;20.70;62.50
22006;DHT22;11167;46.988;15.470;2022-07-03T04:09:28;20.70;63.20
22006;DHT22;11167;46.988;15.470;2022-07-03T04:11:29;20.60;62.00
22006;DHT22;11167;46.988;15.470;2022-07-03T04:15:32;20.50;96.70
22006;DHT22;11167;46.988;15.470;2022-07-03T04:19:34;20.60;97.80
22006;DHT22;11167;46.988;15.470;2022-07-03T04:21:35;20.50;97.10
22006;DHT22;11167;46.988;15.470;2022-07-03T04:23:37;20.40;98.00
22006;DHT22;11167;46.988;15.470;2022-07-03T04:25:38;20.50;97.70
22006;DHT22;11167;46.988;15.470;2022-07-03T04:29:41;20.10;97.80
22006;DHT22;11167;46.988;15.470;2022-07-03T04:31:42;20.20;84.10
22006;DHT22;11167;46.988;15.470;2022-07-03T04:33:44;20.20;97.60
22006;DHT22;11167;46.988;15.470;2022-07-03T04:35:45;20.40;97.20
22006;DHT22;11167;46.988;15.470;2022-07-03T04:37:46;20.40;94.50
22006;DHT22;11167;46.988;15.470;2022-07-03T04:41:49;20.40;82.70
22006;DHT22;11167;46.988;15.470;2022-07-03T04:43:50;20.40;92.70
22006;DHT22;11167;46.988;15.470;2022-07-03T04:47:53;20.30;95.20
22006;DHT22;11167;46.988;15.470;2022-07-03T04:51:55;20.20;98.10
22006;DHT22;11167;46.988;15.470;2022-07-03T04:55:58;20.30;98.90
22006;DHT22;11167;46.988;15.470;2022-07-03T04:57:59;20.20;97.80
22006;DHT22;11167;46.988;15.470;2022-07-03T05:02:02;20.50;99.20
22006;DHT22;11167;46.988;15.470;2022-07-03T05:08:06;20.30;97.60
22006;DHT22;11167;46.988;15.470;2022-07-03T05:10:08;20.00;94.30
22006;DHT22;11167;46.988;15.470;2022-07-03T05:12:09;20.20;91.80
22006;DHT22;11167;46.988;15.470;2022-07-03T05:18:13;19.80;97.70
22006;DHT22;11167;46.988;15.470;2022-07-03T05:20:14;20.10;98.10
22006;DHT22;11167;46.988;15.470;2022-07-03T05:22:24;20.10;98.60
22006;DHT22;11167;46.988;15.470;2022-07-03T05:26:27;20.20;99.90
22006;DHT22;11167;46.988;15.470;2022-07-03T05:32:31;20.20;98.60
22006;DHT22;11167;46.988;15.470;2022-07-03T05:34:32;20.10;98.90
22006;DHT22;11167;46.988;15.470;2022-07-03T05:40:56;20.20;99.90
22006;DHT22;11167;46.988;15.470;2022-07-03T05:45:00;20.20;87.10
22006;DHT22;11167;46.988;15.470;2022-07-03T05:47:02;20.10;99.70
22006;DHT22;11167;46.988;15.470;2022-07-03T05:49:03;19.90;99.70
22006;DHT22;11167;46.988;15.470;2022-07-03T05:53:06;20.10;99.90
22006;DHT22;11167;46.988;15.470;2022-07-03T05:55:07;20.10;99.40
22006;DHT22;11167;46.988;15.470;2022-07-03T05:59:10;20.30;99.90
22006;DHT22;11167;46.988;15.470;2022-07-03T06:09:17;20.20;84.60
22006;DHT22;11167;46.988;15.470;2022-07-03T06:19:27;18.90;61.80
22006;DHT22;11167;46.988;15.470;2022-07-03T06:21:29;20.30;99.90
22006;DHT22;11167;46.988;15.470;2022-07-03T06:23:30;20.40;99.80
22006;DHT22;11167;46.988;15.470;2022-07-03T06:25:32;20.20;98.10
22006;DHT22;11167;46.988;15.470;2022-07-03T06:35:39;20.60;99.90
22006;DHT22;11167;46.988;15.470;2022-07-03T06:47:48;20.50;99.90
22006;DHT22;11167;46.988;15.470;2022-07-03T06:49:49;20.40;94.60
22006;DHT22;11167;46.988;15.470;2022-07-03T06:59:56;20.50;99.90
22006;DHT22;11167;46.988;15.470;2022-07-03T07:03:58;20.70;99.90
22006;DHT22;11167;46.988;15.470;2022-07-03T07:20:15;20.90;99.90
22006;DHT22;11167;46.988;15.470;2022-07-03T07:44:32;20.80;83.10
22006;DHT22;11167;46.988;15.470;2022-07-03T07:50:36;20.90;97.60
22006;DHT22;11167;46.988;15.470;2022-07-03T07:52:37;20.80;99.80
22006;DHT22;11167;46.988;15.470;2022-07-03T07:54:38;20.90;93.80
22006;DHT22;11167;46.988;15.470;2022-07-03T07:56:40;20.80;97.20
22006;DHT22;11167;46.988;15.470;2022-07-03T08:00:43;21.30;90.20
22006;DHT22;11167;46.988;15.470;2022-07-03T08:02:46;21.00;93.20
22006;DHT22;11167;46.988;15.470;2022-07-03T08:05:06;21.00;68.40
22006;DHT22;11167;46.988;15.470;2022-07-03T08:09:27;21.00;93.80
22006;DHT22;11167;46.988;15.470;2022-07-03T08:15:31;21.30;99.70
22006;DHT22;11167;46.988;15.470;2022-07-03T08:17:32;21.40;99.90
22006;DHT22;11167;46.988;15.470;2022-07-03T08:23:36;20.80;86.10
22006;DHT22;11167;46.988;15.470;2022-07-03T08:27:39;21.20;98.20
22006;DHT22;11167;46.988;15.470;2022-07-03T08:33:43;21.10;99.90
22006;DHT22;11167;46.988;15.470;2022-07-03T08:45:58;21.70;99.90
22006;DHT22;11167;46.988;15.470;2022-07-03T08:48:00;21.80;99.90
22006;DHT22;11167;46.988;15.470;2022-07-03T09:02:17;22.10;99.90
22006;DHT22;11167;46.988;15.470;2022-07-03T09:30:59;22.90;85.40
22006;DHT22;11167;46.988;15.470;2022-07-03T10:06:17;23.30;99.90
22006;DHT22;11167;46.988;15.470;2022-07-03T10:14:28;23.70;99.90
22006;DHT22;11167;46.988;15.470;2022-07-03T10:16:29;22.80;99.90
22006;DHT22;11167;46.988;15.470;2022-07-03T10:22:45;23.70;99.90
22006;DHT22;11167;46.988;15.470;2022-07-03T10:46:13;24.20;85.50
22006;DHT22;11167;46.988;15.470;2022-07-03T10:48:15;24.30;99.90
22006;DHT22;11167;46.988;15.470;2022-07-03T11:02:38;24.50;66.00
22006;DHT22;11167;46.988;15.470;2022-07-03T11:07:07;24.50;67.20
22006;DHT22;11167;46.988;15.470;2022-07-03T11:09:12;24.50;68.20
22006;DHT22;11167;46.988;15.470;2022-07-03T11:11:40;24.60;67.60
22006;DHT22;11167;46.988;15.470;2022-07-03T11:14:17;24.60;67.60
22006;DHT22;11167;46.988;15.470;2022-07-03T11:16:22;24.70;67.70
22006;DHT22;11167;46.988;15.470;2022-07-03T11:18:28;24.80;67.70
22006;DHT22;11167;46.988;15.470;2022-07-03T11:20:30;24.80;67.70
22006;DHT22;11167;46.988;15.470;2022-07-03T11:22:41;24.90;67.80
22006;DHT22;11167;46.988;15.470;2022-07-03T11:24:45;24.90;67.80
22006;DHT22;11167;46.988;15.470;2022-07-03T11:26:46;25.00;67.90
22006;DHT22;11167;46.988;15.470;2022-07-03T11:28:49;25.00;67.80
22006;DHT22;11167;46.988;15.470;2022-07-03T11:33:39;25.20;67.90
22006;DHT22;11167;46.988;15.470;2022-07-03T11:37:52;25.30;68.00
22006;DHT22;11167;46.988;15.470;2022-07-03T11:39:57;25.30;67.90
22006;DHT22;11167;46.988;15.470;2022-07-03T11:42:00;25.40;68.00
22006;DHT22;11167;46.988;15.470;2022-07-03T11:44:04;25.50;68.10
22006;DHT22;11167;46.988;15.470;2022-07-03T11:46:05;25.50;68.10
22006;DHT22;11167;46.988;15.470;2022-07-03T11:48:14;25.60;68.10
22006;DHT22;11167;46.988;15.470;2022-07-03T11:50:16;25.70;67.60
22006;DHT22;11167;46.988;15.470;2022-07-03T11:52:32;25.70;68.20
22006;DHT22;11167;46.988;15.470;2022-07-03T11:54:51;25.70;68.20
22006;DHT22;11167;46.988;15.470;2022-07-03T11:56:52;25.80;68.30
22006;DHT22;11167;46.988;15.470;2022-07-03T11:58:55;25.90;68.30
22006;DHT22;11167;46.988;15.470;2022-07-03T12:00:57;25.90;68.30
22006;DHT22;11167;46.988;15.470;2022-07-03T12:02:58;26.00;68.40
22006;DHT22;11167;46.988;15.470;2022-07-03T12:05:21;26.10;68.40
22006;DHT22;11167;46.988;15.470;2022-07-03T12:07:22;26.30;68.60
22006;DHT22;11167;46.988;15.470;2022-07-03T12:09:31;26.20;68.50
22006;DHT22;11167;46.988;15.470;2022-07-03T12:11:35;26.20;68.50
22006;DHT22;11167;46.988;15.470;2022-07-03T12:13:37;26.30;68.60
22006;DHT22;11167;46.988;15.470;2022-07-03T12:15:38;26.30;69.50
22006;DHT22;11167;46.988;15.470;2022-07-03T12:17:43;26.40;68.60
22006;DHT22;11167;46.988;15.470;2022-07-03T12:20:06;26.50;68.80
22006;DHT22;11167;46.988;15.470;2022-07-03T12:21:49;26.50;68.60
22006;DHT22;11167;46.988;15.470;2022-07-03T12:23:52;26.60;68.70
22006;DHT22;11167;46.988;15.470;2022-07-03T12:25:54;26.60;68.70
22006;DHT22;11167;46.988;15.470;2022-07-03T12:27:56;26.70;68.70
22006;DHT22;11167;46.988;15.470;2022-07-03T12:29:59;26.70;68.70
22006;DHT22;11167;46.988;15.470;2022-07-03T12:32:01;26.80;68.80
22006;DHT22;11167;46.988;15.470;2022-07-03T12:34:04;26.80;68.70
22006;DHT22;11167;46.988;15.470;2022-07-03T12:36:07;26.90;68.80
22006;DHT22;11167;46.988;15.470;2022-07-03T12:38:09;27.00;69.80
22006;DHT22;11167;46.988;15.470;2022-07-03T12:40:12;27.00;68.90
22006;DHT22;11167;46.988;15.470;2022-07-03T12:42:21;27.10;69.10
22006;DHT22;11167;46.988;15.470;2022-07-03T12:44:23;27.10;68.90
22006;DHT22;11167;46.988;15.470;2022-07-03T12:48:44;27.20;69.00
22006;DHT22;11167;46.988;15.470;2022-07-03T12:50:50;27.30;69.00
22006;DHT22;11167;46.988;15.470;2022-07-03T12:52:52;27.30;69.00
22006;DHT22;11167;46.988;15.470;2022-07-03T12:54:54;27.40;69.10
22006;DHT22;11167;46.988;15.470;2022-07-03T12:57:05;27.40;69.00
22006;DHT22;11167;46.988;15.470;2022-07-03T12:59:25;27.50;69.10
22006;DHT22;11167;46.988;15.470;2022-07-03T13:01:31;27.60;69.30
22006;DHT22;11167;46.988;15.470;2022-07-03T13:03:35;27.60;69.20
22006;DHT22;11167;46.988;15.470;2022-07-03T13:05:41;27.70;69.30
22006;DHT22;11167;46.988;15.470;2022-07-03T13:07:41;27.70;70.00
22006;DHT22;11167;46.988;15.470;2022-07-03T13:09:43;27.80;69.30
22006;DHT22;11167;46.988;15.470;2022-07-03T13:11:46;27.80;69.20
22006;DHT22;11167;46.988;15.470;2022-07-03T13:13:47;27.90;70.10
22006;DHT22;11167;46.988;15.470;2022-07-03T13:15:48;27.90;69.30
22006;DHT22;11167;46.988;15.470;2022-07-03T13:19:58;28.10;70.00
22006;DHT22;11167;46.988;15.470;2022-07-03T13:21:59;28.10;69.30
22006;DHT22;11167;46.988;15.470;2022-07-03T13:24:00;28.20;69.40
22006;DHT22;11167;46.988;15.470;2022-07-03T13:26:02;28.20;69.40
22006;DHT22;11167;46.988;15.470;2022-07-03T13:30:08;28.30;69.40
22006;DHT22;11167;46.988;15.470;2022-07-03T13:32:10;28.40;69.40
22006;DHT22;11167;46.988;15.470;2022-07-03T13:34:11;28.40;69.40
22006;DHT22;11167;46.988;15.470;2022-07-03T13:36:12;28.50;69.40
22006;DHT22;11167;46.988;15.470;2022-07-03T13:38:13;28.50;69.50
22006;DHT22;11167;46.988;15.470;2022-07-03T13:40:14;28.60;69.50
22006;DHT22;11167;46.988;15.470;2022-07-03T13:42:15;28.70;69.50
22006;DHT22;11167;46.988;15.470;2022-07-03T13:44:18;28.70;69.50
22006;DHT22;11167;46.988;15.470;2022-07-03T13:46:20;28.70;69.50
22006;DHT22;11167;46.988;15.470;2022-07-03T13:48:24;28.80;69.60
22006;DHT22;11167;46.988;15.470;2022-07-03T13:50:26;28.80;70.30
22006;DHT22;11167;46.988;15.470;2022-07-03T13:52:28;28.80;69.60
22006;DHT22;11167;46.988;15.470;2022-07-03T13:54:29;28.90;69.50
22006;DHT22;11167;46.988;15.470;2022-07-03T13:56:31;29.00;69.70
22006;DHT22;11167;46.988;15.470;2022-07-03T13:58:32;29.00;69.50
22006;DHT22;11167;46.988;15.470;2022-07-03T14:00:34;29.10;69.60
22006;DHT22;11167;46.988;15.470;2022-07-03T14:02:35;29.10;69.60
22006;DHT22;11167;46.988;15.470;2022-07-03T14:04:37;29.10;69.50
22006;DHT22;11167;46.988;15.470;2022-07-03T14:06:38;29.20;69.60
22006;DHT22;11167;46.988;15.470;2022-07-03T14:08:40;29.20;69.60
22006;DHT22;11167;46.988;15.470;2022-07-03T14:10:41;29.30;69.60
22006;DHT22;11167;46.988;15.470;2022-07-03T14:12:42;29.30;69.60
22006;DHT22;11167;46.988;15.470;2022-07-03T14:14:43;29.40;69.80
22006;DHT22;11167;46.988;15.470;2022-07-03T14:16:44;29.40;69.70
22006;DHT22;11167;46.988;15.470;2022-07-03T14:18:47;29.50;70.60
22006;DHT22;11167;46.988;15.470;2022-07-03T14:20:49;29.50;69.70
22006;DHT22;11167;46.988;15.470;2022-07-03T14:22:50;29.60;69.80
22006;DHT22;11167;46.988;15.470;2022-07-03T14:24:51;29.60;69.70
22006;DHT22;11167;46.988;15.470;2022-07-03T14:26:52;29.70;70.50
22006;DHT22;11167;46.988;15.470;2022-07-03T14:29:12;29.70;69.70
22006;DHT22;11167;46.988;15.470;2022-07-03T14:31:31;29.80;69.70
22006;DHT22;11167;46.988;15.470;2022-07-03T14:34:10;29.80;69.70
22006;DHT22;11167;46.988;15.470;2022-07-03T14:36:11;30.10;69.90
22006;DHT22;11167;46.988;15.470;2022-07-03T14:38:13;29.90;69.80
22006;DHT22;11167;46.988;15.470;2022-07-03T14:40:14;29.90;69.70
22006;DHT22;11167;46.988;15.470;2022-07-03T14:42:15;29.90;69.70
22006;DHT22;11167;46.988;15.470;2022-07-03T14:44:17;30.00;69.70
22006;DHT22;11167;46.988;15.470;2022-07-03T14:46:18;30.00;69.70
22006;DHT22;11167;46.988;15.470;2022-07-03T14:48:19;30.10;69.80
22006;DHT22;11167;46.988;15.470;2022-07-03T14:50:21;30.10;69.80
22006;DHT22;11167;46.988;15.470;2022-07-03T14:52:23;30.20;69.80
22006;DHT22;11167;46.988;15.470;2022-07-03T14:54:24;30.20;69.80
22006;DHT22;11167;46.988;15.470;2022-07-03T14:56:51;30.30;69.90
22006;DHT22;11167;46.988;15.470;2022-07-03T14:58:50;30.30;69.70
22006;DHT22;11167;46.988;15.470;2022-07-03T15:00:57;30.30;69.70
22006;DHT22;11167;46.988;15.470;2022-07-03T15:03:07;30.40;69.80
22006;DHT22;11167;46.988;15.470;2022-07-03T15:05:12;30.40;69.70
22006;DHT22;11167;46.988;15.470;2022-07-03T15:07:14;30.50;69.90
22006;DHT22;11167;46.988;15.470;2022-07-03T15:09:21;30.50;69.80
22006;DHT22;11167;46.988;15.470;2022-07-03T15:11:25;30.50;69.80
22006;DHT22;11167;46.988;15.470;2022-07-03T15:13:44;30.60;69.80
22006;DHT22;11167;46.988;15.470;2022-07-03T15:15:47;30.60;69.80
22006;DHT22;11167;46.988;15.470;2022-07-03T15:17:52;30.60;69.80
22006;DHT22;11167;46.988;15.470;2022-07-03T15:19:53;30.70;69.30
22006;DHT22;11167;46.988;15.470;2022-07-03T15:21:56;30.70;69.30
22006;DHT22;11167;46.988;15.470;2022-07-03T15:24:01;30.70;70.00
22006;DHT22;11167;46.988;15.470;2022-07-03T15:26:05;30.70;69.90
22006;DHT22;11167;46.988;15.470;2022-07-03T15:28:10;30.80;69.90
22006;DHT22;11167;46.988;15.470;2022-07-03T15:30:11;30.80;69.80
22006;DHT22;11167;46.988;15.470;2022-07-03T15:32:13;30.90;69.80
22006;DHT22;11167;46.988;15.470;2022-07-03T15:34:15;30.90;69.80
22006;DHT22;11167;46.988;15.470;2022-07-03T15:36:18;31.00;69.80
22006;DHT22;11167;46.988;15.470;2022-07-03T15:38:23;31.00;69.80
22006;DHT22;11167;46.988;15.470;2022-07-03T15:45:46;31.10;69.90
22006;DHT22;11167;46.988;15.470;2022-07-03T15:50:31;31.20;69.90
22006;DHT22;11167;46.988;15.470;2022-07-03T15:52:29;31.20;69.90
22006;DHT22;11167;46.988;15.470;2022-07-03T15:56:44;31.20;69.80
22006;DHT22;11167;46.988;15.470;2022-07-03T15:58:49;31.20;69.80
22006;DHT22;11167;46.988;15.470;2022-07-03T16:00:53;31.30;69.80
22006;DHT22;11167;46.988;15.470;2022-07-03T16:05:33;31.40;69.90
22006;DHT22;11167;46.988;15.470;2022-07-03T16:07:37;31.40;69.90
22006;DHT22;11167;46.988;15.470;2022-07-03T16:09:39;31.50;70.00
22006;DHT22;11167;46.988;15.470;2022-07-03T16:11:42;31.50;69.50
22006;DHT22;11167;46.988;15.470;2022-07-03T16:13:45;31.50;70.10
22006;DHT22;11167;46.988;15.470;2022-07-03T16:15:49;31.50;70.00
22006;DHT22;11167;46.988;15.470;2022-07-03T16:17:51;31.60;70.10
22006;DHT22;11167;46.988;15.470;2022-07-03T16:19:55;31.60;70.00
22006;DHT22;11167;46.988;15.470;2022-07-03T16:21:59;31.60;70.00
22006;DHT22;11167;46.988;15.470;2022-07-03T16:24:03;31.70;70.00
22006;DHT22;11167;46.988;15.470;2022-07-03T16:26:05;31.70;70.00
22006;DHT22;11167;46.988;15.470;2022-07-03T16:28:08;31.70;70.00
22006;DHT22;11167;46.988;15.470;2022-07-03T16:30:11;31.80;70.00
22006;DHT22;11167;46.988;15.470;2022-07-03T16:32:15;31.80;70.00
22006;DHT22;11167;46.988;15.470;2022-07-03T16:34:30;31.80;70.00
22006;DHT22;11167;46.988;15.470;2022-07-03T16:36:30;31.80;70.00
22006;DHT22;11167;46.988;15.470;2022-07-03T16:38:35;31.90;69.80
22006;DHT22;11167;46.988;15.470;2022-07-03T16:40:37;31.90;70.20
22006;DHT22;11167;46.988;15.470;2022-07-03T16:42:42;31.90;70.10
22006;DHT22;11167;46.988;15.470;2022-07-03T16:44:45;31.90;70.10
22006;DHT22;11167;46.988;15.470;2022-07-03T16:46:48;32.00;70.10
22006;DHT22;11167;46.988;15.470;2022-07-03T16:48:53;32.00;70.10
22006;DHT22;11167;46.988;15.470;2022-07-03T16:50:57;32.00;70.00
22006;DHT22;11167;46.988;15.470;2022-07-03T16:53:00;32.00;70.10
22006;DHT22;11167;46.988;15.470;2022-07-03T16:55:03;32.10;70.20
22006;DHT22;11167;46.988;15.470;2022-07-03T16:57:05;32.10;69.90
22006;DHT22;11167;46.988;15.470;2022-07-03T16:59:08;32.20;70.00
22006;DHT22;11167;46.988;15.470;2022-07-03T17:01:10;32.20;70.30
22006;DHT22;11167;46.988;15.470;2022-07-03T17:03:12;32.20;70.30
22006;DHT22;11167;46.988;15.470;2022-07-03T17:05:15;32.20;70.40
22006;DHT22;11167;46.988;15.470;2022-07-03T17:07:19;32.30;71.20
22006;DHT22;11167;46.988;15.470;2022-07-03T17:09:22;32.30;70.30
22006;DHT22;11167;46.988;15.470;2022-07-03T17:11:23;32.40;70.40
22006;DHT22;11167;46.988;15.470;2022-07-03T17:13:25;32.40;70.30
22006;DHT22;11167;46.988;15.470;2022-07-03T17:15:28;32.40;70.30
22006;DHT22;11167;46.988;15.470;2022-07-03T17:17:30;32.40;70.30
22006;DHT22;11167;46.988;15.470;2022-07-03T17:19:37;32.50;70.30
22006;DHT22;11167;46.988;15.470;2022-07-03T17:21:44;32.50;70.30
22006;DHT22;11167;46.988;15.470;2022-07-03T17:23:48;32.60;70.40
22006;DHT22;11167;46.988;15.470;2022-07-03T17:25:56;32.60;70.30
22006;DHT22;11167;46.988;15.470;2022-07-03T17:27:59;32.60;70.30
22006;DHT22;11167;46.988;15.470;2022-07-03T17:30:10;32.60;70.20
22006;DHT22;11167;46.988;15.470;2022-07-03T17:32:13;32.70;70.30
22006;DHT22;11167;46.988;15.470;2022-07-03T17:34:19;32.70;71.20
22006;DHT22;11167;46.988;15.470;2022-07-03T17:38:46;32.80;71.10
22006;DHT22;11167;46.988;15.470;2022-07-03T17:40:48;32.80;70.20
22006;DHT22;11167;46.988;15.470;2022-07-03T17:42:50;32.80;70.10
22006;DHT22;11167;46.988;15.470;2022-07-03T17:44:52;32.80;70.00
22006;DHT22;11167;46.988;15.470;2022-07-03T17:46:56;32.80;69.80
22006;DHT22;11167;46.988;15.470;2022-07-03T17:49:00;32.80;69.60
22006;DHT22;11167;46.988;15.470;2022-07-03T17:51:01;32.80;69.50
22006;DHT22;11167;46.988;15.470;2022-07-03T17:53:03;32.80;69.30
22006;DHT22;11167;46.988;15.470;2022-07-03T17:55:07;32.80;69.30
22006;DHT22;11167;46.988;15.470;2022-07-03T17:57:09;32.80;69.20
22006;DHT22;11167;46.988;15.470;2022-07-03T17:59:27;32.80;69.20
22006;DHT22;11167;46.988;15.470;2022-07-03T18:01:29;32.80;69.20
22006;DHT22;11167;46.988;15.470;2022-07-03T18:03:32;32.80;69.20
22006;DHT22;11167;46.988;15.470;2022-07-03T18:05:33;32.80;69.10
22006;DHT22;11167;46.988;15.470;2022-07-03T18:09:42;32.80;69.00
22006;DHT22;11167;46.988;15.470;2022-07-03T18:11:46;32.80;69.00
22006;DHT22;11167;46.988;15.470;2022-07-03T18:14:00;32.80;68.90
22006;DHT22;11167;46.988;15.470;2022-07-03T18:16:07;32.80;69.00
22006;DHT22;11167;46.988;15.470;2022-07-03T18:18:13;32.80;68.80